Time;durP1;ratioP1;P1;durP2;ratioP2;P2;SDS_P1;SDS_P2;PMS_P1;PMS_P2;Temp;Humidity;BMP_temperature;BMP_pressure;BME280_temperature;BME280_humidity;BME280_pressure;Samples;Min_cycle;Max_cycle;Signal;HPM_P1;HPM_P2
2023/07/13 00:00:20;;;;;;;;;;;;;;;;;;4976011;28;20056;-73
2023/07/13 00:02:46;;;;;;;;;;;;;;;;;;4975176;28;19964;-73
2023/07/13 00:05:12;;;;;;;;;;;;;;;;;;4975127;28;19958;-73
2023/07/13 00:07:38;;;;;;;;;;;;;;;;;;4974797;28;19957;-73
2023/07/13 00:10:03;;;;;;;;;;;;;;;;;;4974817;28;20439;-73
2023/07/13 00:12:29;;;;;;;;;;;;;;;;;;4974842;28;19961;-74
2023/07/13 00:14:55;;;;;;;;;;;;;;;;;;4974824;28;20486;-71
2023/07/13 00:17:21;;;;;;;;;;;;;;;;;;4975305;28;20007;-72
2023/07/13 00:19:47;;;;;;;;;;;;;;;;;;4974670;28;19983;-72
2023/07/13 00:22:13;;;;;;;;;;;;;;;;;;4975271;28;19956;-71
2023/07/13 00:24:41;;;;;;;;;;;;;;;;;;4974690;28;20016;-71
2023/07/13 00:27:07;;;;;;;;;;;;;;;;;;4975229;28;19989;-74
2023/07/13 00:29:33;;;;;;;;;;;;;;;;;;4974665;28;20060;-71
2023/07/13 00:31:59;;;;;;;;;;;;;;;;;;4974628;28;20375;-72
2023/07/13 00:34:26;;;;;;;;;;;;;;;;;;4975112;28;19957;-71
2023/07/13 00:36:52;;;;;;;;;;;;;;;;;;4974885;28;19968;-73
2023/07/13 00:39:18;;;;;;;;;;;;;;;;;;4974798;28;20335;-71
2023/07/13 00:41:44;;;;;;;;;;;;;;;;;;4974483;28;20458;-73
2023/07/13 00:44:10;;;;;;;;;;;;;;;;;;4974775;28;19997;-72
2023/07/13 00:46:36;;;;;;;;;;;;;;;;;;4974856;28;19965;-71
2023/07/13 00:49:02;;;;;;;;;;;;;;;;;;4974523;28;19964;-71
2023/07/13 00:51:28;;;;;;;;;;;;;;;;;;4974507;28;19997;-72
2023/07/13 00:53:53;;;;;;;;;;;;;;;;;;4975041;28;19957;-72
2023/07/13 00:56:19;;;;;;;;;;;;;;;;;;4974420;28;19997;-70
2023/07/13 00:58:45;;;;;;;;;;;;;;;;;;4977768;28;20068;-73
2023/07/13 01:01:12;;;;;;;;;;;;;;;;;;4978878;28;19987;-71
2023/07/13 01:03:40;;;;;;;;;;;;;;;;;;4976756;28;19961;-71
2023/07/13 01:06:06;;;;;;;;;;;;;;;;;;4977966;28;20331;-74
2023/07/13 01:08:32;;;;;;;;;;;;;;;;;;4977883;28;20048;-73
2023/07/13 01:10:58;;;;;;;;;;;;;;;;;;4978137;28;19965;-71
2023/07/13 01:13:24;;;;;;;;;;;;;;;;;;4977826;28;19961;-71
2023/07/13 01:15:50;;;;;;;;;;;;;;;;;;4977786;28;19968;-73
2023/07/13 01:18:16;;;;;;;;;;;;;;;;;;4977933;28;19977;-71
2023/07/13 01:20:42;;;;;;;;;;;;;;;;;;4977694;28;19957;-71
2023/07/13 01:23:08;;;;;;;;;;;;;;;;;;4977679;28;19958;-71
2023/07/13 01:25:34;;;;;;;;;;;;;;;;;;4977631;28;19958;-71
2023/07/13 01:28:01;;;;;;;;;;;;;;;;;;4978155;28;20397;-72
2023/07/13 01:30:27;;;;;;;;;;;;;;;;;;4977874;28;19957;-74
2023/07/13 01:32:53;;;;;;;;;;;;;;;;;;4977514;28;19957;-72
2023/07/13 01:35:19;;;;;;;;;;;;;;;;;;4977471;28;20012;-72
2023/07/13 01:37:44;;;;;;;;;;;;;;;;;;4977276;28;19961;-72
2023/07/13 01:40:10;;;;;;;;;;;;;;;;;;4975896;28;20008;-71
2023/07/13 01:42:36;;;;;;;;;;;;;;;;;;4977130;28;20044;-72
2023/07/13 01:45:02;;;;;;;;;;;;;;;;;;4977112;28;19997;-73
2023/07/13 01:47:30;;;;;;;;;;;;;;;;;;4977735;28;20012;-71
2023/07/13 01:49:56;;;;;;;;;;;;;;;;;;4977439;28;19965;-71
2023/07/13 01:52:22;;;;;;;;;;;;;;;;;;4977133;28;19965;-74
2023/07/13 01:54:48;;;;;;;;;;;;;;;;;;4977103;28;20309;-73
2023/07/13 01:57:14;;;;;;;;;;;;;;;;;;4977042;28;20052;-72
2023/07/13 01:59:40;;;;;;;;;;;;;;;;;;4977174;28;19985;-73
2023/07/13 02:02:06;;;;;;;;;;;;;;;;;;4977774;28;19957;-72
2023/07/13 02:04:32;;;;;;;;;;;;;;;;;;4977218;28;20313;-70
2023/07/13 02:06:58;;;;;;;;;;;;;;;;;;4976880;28;19985;-71
2023/07/13 02:09:24;;;;;;;;;;;;;;;;;;4976798;28;20004;-73
2023/07/13 02:11:49;;;;;;;;;;;;;;;;;;4976783;28;19961;-72
2023/07/13 02:14:15;;;;;;;;;;;;;;;;;;4976994;28;19964;-72
2023/07/13 02:16:41;;;;;;;;;;;;;;;;;;4976911;28;20008;-73
2023/07/13 02:19:07;;;;;;;;;;;;;;;;;;4976850;28;20004;-72
2023/07/13 02:21:33;;;;;;;;;;;;;;;;;;4976595;28;19957;-71
2023/07/13 02:23:59;;;;;;;;;;;;;;;;;;4976538;28;19969;-73
2023/07/13 02:26:25;;;;;;;;;;;;;;;;;;4976799;28;20044;-73
2023/07/13 02:28:51;;;;;;;;;;;;;;;;;;4976452;28;20435;-74
2023/07/13 02:31:17;;;;;;;;;;;;;;;;;;4976420;28;19958;-71
2023/07/13 02:33:43;;;;;;;;;;;;;;;;;;4976928;28;19958;-72
2023/07/13 02:36:09;;;;;;;;;;;;;;;;;;4976316;28;20453;-71
2023/07/13 02:38:36;;;;;;;;;;;;;;;;;;4976226;28;19985;-72
2023/07/13 02:41:02;;;;;;;;;;;;;;;;;;4976434;28;20437;-71
2023/07/13 02:43:27;;;;;;;;;;;;;;;;;;4976453;28;19961;-73
2023/07/13 02:45:54;;;;;;;;;;;;;;;;;;4975757;28;19993;-73
2023/07/13 02:48:19;;;;;;;;;;;;;;;;;;4976655;28;19961;-73
2023/07/13 02:50:45;;;;;;;;;;;;;;;;;;4976060;28;19957;-74
2023/07/13 02:53:11;;;;;;;;;;;;;;;;;;4976051;28;19964;-72
2023/07/13 02:55:37;;;;;;;;;;;;;;;;;;4975971;28;19964;-71
2023/07/13 02:58:03;;;;;;;;;;;;;;;;;;4976395;28;19981;-73
2023/07/13 03:00:29;;;;;;;;;;;;;;;;;;4976391;28;20354;-72
2023/07/13 03:02:57;;;;;;;;;;;;;;;;;;4976129;28;20008;-73
2023/07/13 03:05:23;;;;;;;;;;;;;;;;;;4975789;28;20370;-73
2023/07/13 03:07:50;;;;;;;;;;;;;;;;;;4976312;28;20048;-73
2023/07/13 03:10:16;;;;;;;;;;;;;;;;;;4974213;28;19961;-72
2023/07/13 03:12:41;;;;;;;;;;;;;;;;;;4975948;28;19964;-73
2023/07/13 03:15:07;;;;;;;;;;;;;;;;;;4975580;28;19957;-71
2023/07/13 03:17:33;;;;;;;;;;;;;;;;;;4976114;28;19957;-71
2023/07/13 03:19:59;;;;;;;;;;;;;;;;;;4974832;28;20068;-72
2023/07/13 03:22:25;;;;;;;;;;;;;;;;;;4976043;28;19958;-72
2023/07/13 03:24:51;;;;;;;;;;;;;;;;;;4975707;28;20015;-72
2023/07/13 03:27:17;;;;;;;;;;;;;;;;;;4975664;28;19958;-72
2023/07/13 03:29:43;;;;;;;;;;;;;;;;;;4975347;28;19957;-72
2023/07/13 03:32:09;;;;;;;;;;;;;;;;;;4975371;28;20052;-71
2023/07/13 03:34:35;;;;;;;;;;;;;;;;;;4975302;28;20424;-74
2023/07/13 03:37:00;;;;;;;;;;;;;;;;;;4975310;28;19964;-72
2023/07/13 03:39:26;;;;;;;;;;;;;;;;;;4975177;28;19977;-72
2023/07/13 03:41:52;;;;;;;;;;;;;;;;;;4975484;28;20347;-73
2023/07/13 03:44:18;;;;;;;;;;;;;;;;;;4975143;28;20076;-73
2023/07/13 03:46:44;;;;;;;;;;;;;;;;;;4975093;28;19961;-74
2023/07/13 03:49:10;;;;;;;;;;;;;;;;;;4975073;28;20411;-70
2023/07/13 03:51:36;;;;;;;;;;;;;;;;;;4975031;28;19957;-71
2023/07/13 03:54:02;;;;;;;;;;;;;;;;;;4975025;28;19957;-73
2023/07/13 03:56:28;;;;;;;;;;;;;;;;;;4974966;28;19957;-72
2023/07/13 03:58:54;;;;;;;;;;;;;;;;;;4975138;28;19977;-71
2023/07/13 04:01:20;;;;;;;;;;;;;;;;;;4975702;28;20000;-73
2023/07/13 04:03:47;;;;;;;;;;;;;;;;;;4974917;28;20011;-71
2023/07/13 04:06:15;;;;;;;;;;;;;;;;;;4975433;28;19961;-73
2023/07/13 04:08:41;;;;;;;;;;;;;;;;;;4974834;28;19958;-70
2023/07/13 04:11:06;;;;;;;;;;;;;;;;;;4974830;28;19964;-73
2023/07/13 04:13:32;;;;;;;;;;;;;;;;;;4974818;28;19957;-73
2023/07/13 04:15:58;;;;;;;;;;;;;;;;;;4975318;28;19957;-72
2023/07/13 04:18:24;;;;;;;;;;;;;;;;;;4974683;28;19984;-74
2023/07/13 04:20:50;;;;;;;;;;;;;;;;;;4974763;28;19987;-73
2023/07/13 04:23:16;;;;;;;;;;;;;;;;;;4974983;28;19957;-71
2023/07/13 04:25:42;;;;;;;;;;;;;;;;;;4974672;28;20407;-71
2023/07/13 04:28:08;;;;;;;;;;;;;;;;;;4974732;28;19957;-70
2023/07/13 04:30:34;;;;;;;;;;;;;;;;;;4974741;28;20383;-73
2023/07/13 04:33:00;;;;;;;;;;;;;;;;;;4978857;28;19961;-74
2023/07/13 04:35:25;;;;;;;;;;;;;;;;;;4978615;28;20326;-71
2023/07/13 04:37:51;;;;;;;;;;;;;;;;;;4978720;28;19961;-72
2023/07/13 04:40:17;;;;;;;;;;;;;;;;;;4978713;28;19992;-72
2023/07/13 04:42:43;;;;;;;;;;;;;;;;;;4978916;28;19977;-71
2023/07/13 04:45:09;;;;;;;;;;;;;;;;;;4978189;28;20032;-72
2023/07/13 04:47:36;;;;;;;;;;;;;;;;;;4978345;28;19957;-73
2023/07/13 04:50:02;;;;;;;;;;;;;;;;;;4976792;28;20343;-72
2023/07/13 04:52:28;;;;;;;;;;;;;;;;;;4978237;28;19957;-74
2023/07/13 04:54:53;;;;;;;;;;;;;;;;;;4978466;28;19964;-71
2023/07/13 04:57:19;;;;;;;;;;;;;;;;;;4978143;28;20438;-71
2023/07/13 04:59:45;;;;;;;;;;;;;;;;;;4978022;28;20016;-73
2023/07/13 05:02:11;;;;;;;;;;;;;;;;;;4978647;28;20415;-73
2023/07/13 05:04:37;;;;;;;;;;;;;;;;;;4978034;28;19957;-72
2023/07/13 05:07:03;;;;;;;;;;;;;;;;;;4978521;28;20411;-73
2023/07/13 05:09:29;;;;;;;;;;;;;;;;;;4978165;28;19957;-73
2023/07/13 05:11:55;;;;;;;;;;;;;;;;;;4977864;28;19957;-72
2023/07/13 05:14:20;;;;;;;;;;;;;;;;;;4977847;28;20054;-73
2023/07/13 05:16:46;;;;;;;;;;;;;;;;;;4976500;28;19961;-71
2023/07/13 05:19:12;;;;;;;;;;;;;;;;;;4977684;28;20004;-72
2023/07/13 05:21:38;;;;;;;;;;;;;;;;;;4977707;28;20396;-73
2023/07/13 05:24:04;;;;;;;;;;;;;;;;;;4977664;28;19957;-73
2023/07/13 05:26:30;;;;;;;;;;;;;;;;;;4977898;28;20334;-73
2023/07/13 05:28:56;;;;;;;;;;;;;;;;;;4977570;28;19957;-71
2023/07/13 05:31:22;;;;;;;;;;;;;;;;;;4977801;28;19996;-70
2023/07/13 05:33:48;;;;;;;;;;;;;;;;;;4977530;28;20416;-72
2023/07/13 05:36:13;;;;;;;;;;;;;;;;;;4977428;28;20048;-72
2023/07/13 05:38:40;;;;;;;;;;;;;;;;;;4977890;28;20342;-72
2023/07/13 05:41:06;;;;;;;;;;;;;;;;;;4977284;28;19963;-72
2023/07/13 05:43:32;;;;;;;;;;;;;;;;;;4976645;28;19961;-73
2023/07/13 05:45:57;;;;;;;;;;;;;;;;;;4977127;28;20470;-72
2023/07/13 05:48:23;;;;;;;;;;;;;;;;;;4977216;28;20507;-72
2023/07/13 05:50:49;;;;;;;;;;;;;;;;;;4977174;28;19968;-74
2023/07/13 05:53:15;;;;;;;;;;;;;;;;;;4977147;28;19957;-73
2023/07/13 05:55:41;;;;;;;;;;;;;;;;;;4977119;28;19964;-73
2023/07/13 05:58:07;;;;;;;;;;;;;;;;;;4977280;28;20000;-72
2023/07/13 06:00:33;;;;;;;;;;;;;;;;;;4977031;28;19957;-72
2023/07/13 06:02:59;;;;;;;;;;;;;;;;;;4978005;28;19958;-72
2023/07/13 06:05:25;;;;;;;;;;;;;;;;;;4975629;28;19961;-73
2023/07/13 06:07:51;;;;;;;;;;;;;;;;;;4977425;28;20048;-71
2023/07/13 06:10:17;;;;;;;;;;;;;;;;;;4976843;28;19993;-72
2023/07/13 06:12:43;;;;;;;;;;;;;;;;;;4977059;28;19957;-73
2023/07/13 06:15:08;;;;;;;;;;;;;;;;;;4976722;28;19957;-72
2023/07/13 06:17:34;;;;;;;;;;;;;;;;;;4976683;28;19957;-73
2023/07/13 06:20:00;;;;;;;;;;;;;;;;;;4977143;28;20363;-70
2023/07/13 06:22:26;;;;;;;;;;;;;;;;;;4976880;28;20012;-71
2023/07/13 06:24:52;;;;;;;;;;;;;;;;;;4976632;28;20423;-72
2023/07/13 06:27:18;;;;;;;;;;;;;;;;;;4976559;28;19964;-72
2023/07/13 06:29:45;;;;;;;;;;;;;;;;;;4976513;28;19963;-74
2023/07/13 06:32:10;;;;;;;;;;;;;;;;;;4976724;28;20330;-74
2023/07/13 06:34:36;;;;;;;;;;;;;;;;;;4976417;28;20044;-72
2023/07/13 06:37:02;;;;;;;;;;;;;;;;;;4976339;28;20474;-70
2023/07/13 06:39:28;;;;;;;;;;;;;;;;;;4976240;28;20395;-73
2023/07/13 06:41:54;;;;;;;;;;;;;;;;;;4976139;28;19976;-71
2023/07/13 06:44:20;;;;;;;;;;;;;;;;;;4976397;28;20356;-73
2023/07/13 06:46:46;;;;;;;;;;;;;;;;;;4976506;28;19997;-73
2023/07/13 06:49:12;;;;;;;;;;;;;;;;;;4976101;28;19958;-73
2023/07/13 06:51:38;;;;;;;;;;;;;;;;;;4976320;28;19964;-72
2023/07/13 06:54:04;;;;;;;;;;;;;;;;;;4975828;28;20000;-72
2023/07/13 06:56:29;;;;;;;;;;;;;;;;;;4975533;28;19961;-71
2023/07/13 06:58:55;;;;;;;;;;;;;;;;;;4976388;28;20423;-72
2023/07/13 07:01:21;;;;;;;;;;;;;;;;;;4976418;28;19957;-73
2023/07/13 07:03:47;;;;;;;;;;;;;;;;;;4975952;28;19964;-73
2023/07/13 07:06:14;;;;;;;;;;;;;;;;;;4975174;28;19969;-70
2023/07/13 07:08:40;;;;;;;;;;;;;;;;;;4975213;28;19966;-71
2023/07/13 07:11:06;;;;;;;;;;;;;;;;;;4974932;28;20450;-71
2023/07/13 07:13:31;;;;;;;;;;;;;;;;;;4974362;28;20007;-71
2023/07/13 07:15:59;;;;;;;;;;;;;;;;;;4975384;28;20355;-71
2023/07/13 07:18:26;;;;;;;;;;;;;;;;;;4974765;28;20039;-70
2023/07/13 07:20:51;;;;;;;;;;;;;;;;;;4976061;28;20477;-71
2023/07/13 07:23:18;;;;;;;;;;;;;;;;;;4975087;28;20059;-70
2023/07/13 07:25:44;;;;;;;;;;;;;;;;;;4975468;28;20029;-70
2023/07/13 07:28:10;;;;;;;;;;;;;;;;;;4974473;28;19969;-70
2023/07/13 07:30:37;;;;;;;;;;;;;;;;;;4975073;28;20031;-71
2023/07/13 07:33:03;;;;;;;;;;;;;;;;;;4974456;28;20016;-70
2023/07/13 07:35:29;;;;;;;;;;;;;;;;;;4974893;28;20020;-71
2023/07/13 07:37:55;;;;;;;;;;;;;;;;;;4974443;28;20113;-71
2023/07/13 07:40:21;;;;;;;;;;;;;;;;;;4973633;28;19968;-71
2023/07/13 07:42:47;;;;;;;;;;;;;;;;;;4974064;28;20358;-71
2023/07/13 07:45:13;;;;;;;;;;;;;;;;;;4973949;28;19989;-72
2023/07/13 07:47:39;;;;;;;;;;;;;;;;;;4974783;28;20052;-73
2023/07/13 07:50:05;;;;;;;;;;;;;;;;;;4974471;28;20012;-71
2023/07/13 07:52:31;;;;;;;;;;;;;;;;;;4975381;28;20026;-74
2023/07/13 07:54:57;;;;;;;;;;;;;;;;;;4973850;28;19992;-71
2023/07/13 07:57:23;;;;;;;;;;;;;;;;;;4973951;28;19965;-70
2023/07/13 07:59:48;;;;;;;;;;;;;;;;;;4974534;28;20355;-74
2023/07/13 08:02:14;;;;;;;;;;;;;;;;;;4975844;28;19964;-71
2023/07/13 08:04:40;;;;;;;;;;;;;;;;;;4974341;28;19961;-69
2023/07/13 08:07:06;;;;;;;;;;;;;;;;;;4974319;28;19961;-69
2023/07/13 08:09:32;;;;;;;;;;;;;;;;;;4974358;28;20033;-69
2023/07/13 08:11:58;;;;;;;;;;;;;;;;;;4975256;28;19957;-68
2023/07/13 08:14:24;;;;;;;;;;;;;;;;;;4974407;28;20489;-70
2023/07/13 08:16:50;;;;;;;;;;;;;;;;;;4974424;28;20490;-70
2023/07/13 08:19:16;;;;;;;;;;;;;;;;;;4975007;28;19977;-73
2023/07/13 08:21:43;;;;;;;;;;;;;;;;;;4974421;28;20410;-71
2023/07/13 08:24:08;;;;;;;;;;;;;;;;;;4974006;28;19961;-72
2023/07/13 08:26:34;;;;;;;;;;;;;;;;;;4974370;28;20000;-71
2023/07/13 08:29:00;;;;;;;;;;;;;;;;;;4955661;28;20016;-71
2023/07/13 08:31:26;;;;;;;;;;;;;;;;;;4960838;28;19977;-71
2023/07/13 08:33:52;;;;;;;;;;;;;;;;;;4974758;28;20363;-72
2023/07/13 08:36:18;;;;;;;;;;;;;;;;;;4974099;28;19961;-74
2023/07/13 08:38:44;;;;;;;;;;;;;;;;;;4973848;28;19981;-73
2023/07/13 08:41:10;;;;;;;;;;;;;;;;;;4975039;28;20000;-72
2023/07/13 08:43:36;;;;;;;;;;;;;;;;;;4974020;28;19981;-72
2023/07/13 08:46:01;;;;;;;;;;;;;;;;;;4970083;28;19992;-71
2023/07/13 08:48:27;;;;;;;;;;;;;;;;;;4974044;28;19969;-72
2023/07/13 08:50:53;;;;;;;;;;;;;;;;;;4973573;28;20005;-71
2023/07/13 08:53:19;;;;;;;;;;;;;;;;;;4973670;28;20060;-69
2023/07/13 08:55:45;;;;;;;;;;;;;;;;;;4974079;28;19961;-70
2023/07/13 08:58:11;;;;;;;;;;;;;;;;;;4973458;28;20031;-70
2023/07/13 09:00:37;;;;;;;;;;;;;;;;;;4973089;28;19967;-70
2023/07/13 09:03:03;;;;;;;;;;;;;;;;;;4974560;28;19961;-71
2023/07/13 09:05:29;;;;;;;;;;;;;;;;;;4973887;28;19957;-70
2023/07/13 09:07:55;;;;;;;;;;;;;;;;;;4973523;28;20020;-71
2023/07/13 09:10:21;;;;;;;;;;;;;;;;;;4973762;28;20092;-72
2023/07/13 09:12:47;;;;;;;;;;;;;;;;;;4973205;28;19961;-69
2023/07/13 09:15:13;;;;;;;;;;;;;;;;;;4972650;28;19965;-72
2023/07/13 09:17:39;;;;;;;;;;;;;;;;;;4972916;28;19961;-70
2023/07/13 09:20:05;;;;;;;;;;;;;;;;;;4978155;28;19984;-70
2023/07/13 09:22:31;;;;;;;;;;;;;;;;;;4976656;28;19965;-71
2023/07/13 09:24:56;;;;;;;;;;;;;;;;;;4977586;28;19961;-72
2023/07/13 09:27:23;;;;;;;;;;;;;;;;;;4976638;28;20054;-72
2023/07/13 09:29:49;;;;;;;;;;;;;;;;;;4977816;28;20408;-73
2023/07/13 09:32:15;;;;;;;;;;;;;;;;;;4975761;28;19996;-69
2023/07/13 09:34:41;;;;;;;;;;;;;;;;;;4976302;28;19996;-72
2023/07/13 09:37:07;;;;;;;;;;;;;;;;;;4975504;28;19987;-69
2023/07/13 09:39:33;;;;;;;;;;;;;;;;;;4975828;28;19980;-68
2023/07/13 09:41:58;;;;;;;;;;;;;;;;;;4975531;28;19988;-69
2023/07/13 09:44:24;;;;;;;;;;;;;;;;;;4975423;28;19993;-70
2023/07/13 09:46:50;;;;;;;;;;;;;;;;;;4976010;28;19999;-71
2023/07/13 09:49:16;;;;;;;;;;;;;;;;;;4977112;28;20494;-73
2023/07/13 09:51:44;;;;;;;;;;;;;;;;;;4976724;28;19967;-73
2023/07/13 09:54:10;;;;;;;;;;;;;;;;;;4976629;28;19975;-72
2023/07/13 09:56:36;;;;;;;;;;;;;;;;;;4976988;28;19961;-71
2023/07/13 09:59:01;;;;;;;;;;;;;;;;;;4976744;28;20006;-71
2023/07/13 10:01:29;;;;;;;;;;;;;;;;;;4976352;28;20011;-73
2023/07/13 10:03:55;;;;;;;;;;;;;;;;;;4976569;28;19973;-71
2023/07/13 10:06:21;;;;;;;;;;;;;;;;;;4954705;28;19969;-71
2023/07/13 10:08:47;;;;;;;;;;;;;;;;;;4955061;28;20052;-71
2023/07/13 10:11:13;;;;;;;;;;;;;;;;;;4956894;28;20466;-70
2023/07/13 10:13:39;;;;;;;;;;;;;;;;;;4956686;28;20053;-71
2023/07/13 10:16:05;;;;;;;;;;;;;;;;;;4956812;28;19958;-70
2023/07/13 10:18:31;;;;;;;;;;;;;;;;;;4957022;28;20020;-71
2023/07/13 10:20:57;;;;;;;;;;;;;;;;;;4957324;28;20012;-71
2023/07/13 10:23:23;;;;;;;;;;;;;;;;;;4957387;28;19958;-70
2023/07/13 10:25:48;;;;;;;;;;;;;;;;;;4957615;28;19957;-71
2023/07/13 10:28:14;;;;;;;;;;;;;;;;;;4957541;28;20422;-70
2023/07/13 10:30:40;;;;;;;;;;;;;;;;;;4957573;28;19961;-71
2023/07/13 10:33:06;;;;;;;;;;;;;;;;;;4957148;28;20439;-70
2023/07/13 10:35:32;;;;;;;;;;;;;;;;;;4957135;28;19958;-71
2023/07/13 10:38:00;;;;;;;;;;;;;;;;;;4957335;28;20440;-71
2023/07/13 10:40:26;;;;;;;;;;;;;;;;;;4955548;28;19997;-71
2023/07/13 10:42:52;;;;;;;;;;;;;;;;;;4956892;28;20024;-70
2023/07/13 10:45:17;;;;;;;;;;;;;;;;;;4956971;28;20000;-71
2023/07/13 10:47:43;;;;;;;;;;;;;;;;;;4957146;28;19957;-70
2023/07/13 10:50:09;;;;;;;;;;;;;;;;;;4956828;28;19964;-70
2023/07/13 10:52:36;;;;;;;;;;;;;;;;;;4956791;28;20480;-72
2023/07/13 10:55:03;;;;;;;;;;;;;;;;;;4956726;28;19958;-71
2023/07/13 10:57:29;;;;;;;;;;;;;;;;;;4956696;28;19964;-70
2023/07/13 10:59:55;;;;;;;;;;;;;;;;;;4956618;28;19978;-72
2023/07/13 11:02:21;;;;;;;;;;;;;;;;;;4957404;28;20012;-70
2023/07/13 11:04:50;;;;;;;;;;;;;;;;;;4956842;28;19965;-71
2023/07/13 11:07:16;;;;;;;;;;;;;;;;;;4956789;28;20009;-71
2023/07/13 11:09:47;;;;;;;;;;;;;;;;;;4956776;28;19981;-71
2023/07/13 11:12:14;;;;;;;;;;;;;;;;;;4956174;28;19968;-70
2023/07/13 11:14:40;;;;;;;;;;;;;;;;;;4956395;28;19969;-70
2023/07/13 11:17:06;;;;;;;;;;;;;;;;;;4956622;28;19958;-71
2023/07/13 11:19:32;;;;;;;;;;;;;;;;;;4956231;28;20032;-71
2023/07/13 11:21:58;;;;;;;;;;;;;;;;;;4956539;28;19958;-72
2023/07/13 11:24:24;;;;;;;;;;;;;;;;;;4956208;28;19957;-71
2023/07/13 11:26:51;;;;;;;;;;;;;;;;;;4956192;28;20420;-70
2023/07/13 11:29:17;;;;;;;;;;;;;;;;;;4954715;28;19961;-70
2023/07/13 11:31:43;;;;;;;;;;;;;;;;;;4956103;28;20024;-70
2023/07/13 11:34:09;;;;;;;;;;;;;;;;;;4956055;28;20041;-71
2023/07/13 11:36:35;;;;;;;;;;;;;;;;;;4956033;28;20016;-70
2023/07/13 11:39:01;;;;;;;;;;;;;;;;;;4956469;28;19977;-70
2023/07/13 11:41:27;;;;;;;;;;;;;;;;;;4955375;28;19973;-70
2023/07/13 11:43:53;;;;;;;;;;;;;;;;;;4955976;28;19958;-70
2023/07/13 11:46:19;;;;;;;;;;;;;;;;;;4956196;28;19970;-71
2023/07/13 11:48:45;;;;;;;;;;;;;;;;;;4955847;28;20092;-70
2023/07/13 11:51:10;;;;;;;;;;;;;;;;;;4955770;28;20044;-70
2023/07/13 11:53:36;;;;;;;;;;;;;;;;;;4956333;28;20404;-70
2023/07/13 11:56:02;;;;;;;;;;;;;;;;;;4956055;28;19958;-71
2023/07/13 11:58:28;;;;;;;;;;;;;;;;;;4955701;28;20423;-71
2023/07/13 12:00:54;;;;;;;;;;;;;;;;;;4955716;28;20044;-70
2023/07/13 12:03:20;;;;;;;;;;;;;;;;;;4956764;28;20328;-69
2023/07/13 12:05:46;;;;;;;;;;;;;;;;;;4955664;28;19957;-71
2023/07/13 12:08:12;;;;;;;;;;;;;;;;;;4955920;28;20028;-71
2023/07/13 12:10:37;;;;;;;;;;;;;;;;;;4955892;28;19957;-70
2023/07/13 12:13:03;;;;;;;;;;;;;;;;;;4955582;28;19957;-70
2023/07/13 12:15:29;;;;;;;;;;;;;;;;;;4955837;28;20113;-70
2023/07/13 12:17:56;;;;;;;;;;;;;;;;;;4955551;28;20096;-70
2023/07/13 12:20:22;;;;;;;;;;;;;;;;;;4955521;28;19961;-70
2023/07/13 12:22:48;;;;;;;;;;;;;;;;;;4955492;28;19965;-71
2023/07/13 12:25:14;;;;;;;;;;;;;;;;;;4955770;28;19958;-71
2023/07/13 12:27:40;;;;;;;;;;;;;;;;;;4955457;28;19965;-70
2023/07/13 12:30:06;;;;;;;;;;;;;;;;;;4955960;28;19964;-70
2023/07/13 12:32:32;;;;;;;;;;;;;;;;;;4955387;28;19958;-72
2023/07/13 12:34:58;;;;;;;;;;;;;;;;;;4955659;28;19993;-71
2023/07/13 12:37:25;;;;;;;;;;;;;;;;;;4955223;28;19985;-70
2023/07/13 12:39:50;;;;;;;;;;;;;;;;;;4955162;28;20474;-72
2023/07/13 12:42:16;;;;;;;;;;;;;;;;;;4955275;28;19973;-71
2023/07/13 12:44:42;;;;;;;;;;;;;;;;;;4955301;28;19992;-71
2023/07/13 12:47:11;;;;;;;;;;;;;;;;;;4955290;28;20433;-71
2023/07/13 12:49:38;;;;;;;;;;;;;;;;;;4954025;28;19962;-70
2023/07/13 12:52:04;;;;;;;;;;;;;;;;;;4955823;28;19964;-70
2023/07/13 12:54:30;;;;;;;;;;;;;;;;;;4958537;28;19962;-71
2023/07/13 12:56:57;;;;;;;;;;;;;;;;;;4958933;28;20398;-70
2023/07/13 12:59:25;;;;;;;;;;;;;;;;;;4958800;28;20025;-70
2023/07/13 13:01:53;;;;;;;;;;;;;;;;;;4958829;28;19958;-70
2023/07/13 13:04:21;;;;;;;;;;;;;;;;;;4959873;28;20048;-70
2023/07/13 13:06:47;;;;;;;;;;;;;;;;;;4957467;28;19962;-70
2023/07/13 13:09:13;;;;;;;;;;;;;;;;;;4958684;28;20376;-71
2023/07/13 13:11:39;;;;;;;;;;;;;;;;;;4958643;28;19958;-71
2023/07/13 13:14:07;;;;;;;;;;;;;;;;;;4958588;28;20009;-72
2023/07/13 13:16:33;;;;;;;;;;;;;;;;;;4958807;28;20408;-70
2023/07/13 13:18:59;;;;;;;;;;;;;;;;;;4958634;28;19978;-70
2023/07/13 13:21:26;;;;;;;;;;;;;;;;;;4958678;28;19968;-71
2023/07/13 13:23:53;;;;;;;;;;;;;;;;;;4958661;28;19962;-70
2023/07/13 13:26:18;;;;;;;;;;;;;;;;;;4958549;28;19961;-69
2023/07/13 13:28:44;;;;;;;;;;;;;;;;;;4958204;28;19958;-71
2023/07/13 13:31:14;;;;;;;;;;;;;;;;;;4958839;28;20038;-71
2023/07/13 13:33:45;;;;;;;;;;;;;;;;;;4958096;28;20034;-71
2023/07/13 13:36:10;;;;;;;;;;;;;;;;;;4958666;28;20044;-70
2023/07/13 13:38:36;;;;;;;;;;;;;;;;;;4958043;28;20076;-70
2023/07/13 13:41:03;;;;;;;;;;;;;;;;;;4958120;28;19985;-71
2023/07/13 13:43:29;;;;;;;;;;;;;;;;;;4958608;28;19965;-72
2023/07/13 13:45:55;;;;;;;;;;;;;;;;;;4957635;29;20546;-71
2023/07/13 13:48:21;;;;;;;;;;;;;;;;;;4958535;28;19962;-71
2023/07/13 13:50:47;;;;;;;;;;;;;;;;;;4957961;28;19958;-71
2023/07/13 13:53:13;;;;;;;;;;;;;;;;;;4957912;28;20029;-71
2023/07/13 13:55:41;;;;;;;;;;;;;;;;;;4957895;28;20016;-71
2023/07/13 13:58:07;;;;;;;;;;;;;;;;;;4958301;28;19964;-71
2023/07/13 14:00:33;;;;;;;;;;;;;;;;;;4958032;28;19957;-70
2023/07/13 14:02:59;;;;;;;;;;;;;;;;;;4958293;28;19964;-70
2023/07/13 14:05:30;;;;;;;;;;;;;;;;;;4957347;28;19958;-72
2023/07/13 14:07:56;;;;;;;;;;;;;;;;;;4957844;28;20439;-70
2023/07/13 14:10:22;;;;;;;;;;;;;;;;;;4957620;28;19964;-70
2023/07/13 14:12:48;;;;;;;;;;;;;;;;;;4957598;28;19958;-71
2023/07/13 14:15:15;;;;;;;;;;;;;;;;;;4958067;28;20324;-71
2023/07/13 14:17:41;;;;;;;;;;;;;;;;;;4957454;28;20338;-70
2023/07/13 14:20:08;;;;;;;;;;;;;;;;;;4957412;28;20080;-71
2023/07/13 14:22:34;;;;;;;;;;;;;;;;;;4957630;28;19981;-71
2023/07/13 14:25:00;;;;;;;;;;;;;;;;;;4957630;28;20415;-71
2023/07/13 14:27:25;;;;;;;;;;;;;;;;;;4957823;28;19961;-72
2023/07/13 14:29:51;;;;;;;;;;;;;;;;;;4957260;28;19965;-71
2023/07/13 14:32:17;;;;;;;;;;;;;;;;;;4957736;28;20396;-71
2023/07/13 14:34:43;;;;;;;;;;;;;;;;;;4957426;28;20009;-70
2023/07/13 14:37:09;;;;;;;;;;;;;;;;;;4957678;28;19981;-71
2023/07/13 14:39:35;;;;;;;;;;;;;;;;;;4957826;28;20414;-71
2023/07/13 14:42:03;;;;;;;;;;;;;;;;;;4957181;28;19984;-71
2023/07/13 14:44:29;;;;;;;;;;;;;;;;;;4956939;28;20037;-71
2023/07/13 14:46:55;;;;;;;;;;;;;;;;;;4956901;28;20004;-71
2023/07/13 14:49:20;;;;;;;;;;;;;;;;;;4957429;28;20434;-70
2023/07/13 14:51:46;;;;;;;;;;;;;;;;;;4957087;28;19958;-70
2023/07/13 14:54:12;;;;;;;;;;;;;;;;;;4955487;28;19962;-70
2023/07/13 14:56:38;;;;;;;;;;;;;;;;;;4956803;28;19958;-71
2023/07/13 14:59:04;;;;;;;;;;;;;;;;;;4956969;28;19977;-71
2023/07/13 15:01:30;;;;;;;;;;;;;;;;;;4956671;28;20008;-70
2023/07/13 15:03:56;;;;;;;;;;;;;;;;;;4957156;28;19958;-71
2023/07/13 15:06:22;;;;;;;;;;;;;;;;;;4956886;28;20402;-72
2023/07/13 15:08:48;;;;;;;;;;;;;;;;;;4956504;28;19957;-72
2023/07/13 15:11:14;;;;;;;;;;;;;;;;;;4956465;28;19957;-70
2023/07/13 15:13:40;;;;;;;;;;;;;;;;;;4956690;28;19968;-71
2023/07/13 15:16:07;;;;;;;;;;;;;;;;;;4955599;28;19958;-71
2023/07/13 15:18:34;;;;;;;;;;;;;;;;;;4956299;28;20028;-70
2023/07/13 15:21:03;;;;;;;;;;;;;;;;;;4956593;28;20323;-71
2023/07/13 15:23:31;;;;;;;;;;;;;;;;;;4956120;28;20324;-70
2023/07/13 15:25:57;;;;;;;;;;;;;;;;;;4956257;28;20013;-70
2023/07/13 15:28:23;;;;;;;;;;;;;;;;;;4956190;28;19957;-71
2023/07/13 15:30:49;;;;;;;;;;;;;;;;;;4956397;28;19957;-71
2023/07/13 15:33:16;;;;;;;;;;;;;;;;;;4956124;28;20057;-71
2023/07/13 15:35:43;;;;;;;;;;;;;;;;;;4956347;28;20458;-70
2023/07/13 15:38:09;;;;;;;;;;;;;;;;;;4954689;28;20328;-70
2023/07/13 15:40:35;;;;;;;;;;;;;;;;;;4956556;28;19973;-71
2023/07/13 15:43:01;;;;;;;;;;;;;;;;;;4955848;28;19974;-71
2023/07/13 15:45:28;;;;;;;;;;;;;;;;;;4955694;28;20076;-70
2023/07/13 15:47:53;;;;;;;;;;;;;;;;;;4956189;28;20434;-71
2023/07/13 15:50:19;;;;;;;;;;;;;;;;;;4955892;28;19958;-71
2023/07/13 15:52:45;;;;;;;;;;;;;;;;;;4955855;28;19958;-70
2023/07/13 15:55:11;;;;;;;;;;;;;;;;;;4955854;28;19965;-70
2023/07/13 15:57:37;;;;;;;;;;;;;;;;;;4956035;28;19958;-71
2023/07/13 16:00:05;;;;;;;;;;;;;;;;;;4955643;28;19977;-70
2023/07/13 16:02:31;;;;;;;;;;;;;;;;;;4956476;28;19965;-70
2023/07/13 16:04:57;;;;;;;;;;;;;;;;;;4955725;28;19963;-69
2023/07/13 16:07:23;;;;;;;;;;;;;;;;;;4955984;28;19963;-70
2023/07/13 16:09:49;;;;;;;;;;;;;;;;;;4955541;28;20411;-71
2023/07/13 16:12:16;;;;;;;;;;;;;;;;;;4955586;28;19993;-70
2023/07/13 16:14:42;;;;;;;;;;;;;;;;;;4955562;28;19957;-70
2023/07/13 16:17:08;;;;;;;;;;;;;;;;;;4955843;28;19965;-70
2023/07/13 16:19:34;;;;;;;;;;;;;;;;;;4955438;28;19977;-71
2023/07/13 16:22:00;;;;;;;;;;;;;;;;;;4955741;28;19957;-70
2023/07/13 16:24:26;;;;;;;;;;;;;;;;;;4955496;28;20016;-71
2023/07/13 16:26:52;;;;;;;;;;;;;;;;;;4956050;28;20412;-71
2023/07/13 16:29:18;;;;;;;;;;;;;;;;;;4959413;28;19958;-71
2023/07/13 16:31:44;;;;;;;;;;;;;;;;;;4959423;28;20327;-70
2023/07/13 16:34:10;;;;;;;;;;;;;;;;;;4959342;28;19982;-70
2023/07/13 16:36:36;;;;;;;;;;;;;;;;;;4959314;28;19992;-71